Time;durP1;ratioP1;P1;durP2;ratioP2;P2;SDS_P1;SDS_P2;PMS_P1;PMS_P2;Temp;Humidity;BMP_temperature;BMP_pressure;BME280_temperature;BME280_humidity;BME280_pressure;Samples;Min_cycle;Max_cycle;Signal;HPM_P1;HPM_P2
2021/12/04 00:01:25;;;;;;;;;;;1.10;99.90;;;;;;8360266;28;19924;-62
2021/12/04 00:05:25;;;;;;;;;;;1.00;99.90;;;;;;8357579;28;19959;-62
2021/12/04 00:09:26;;;;;;;;;;;0.90;99.90;;;;;;8320941;28;19917;-62
2021/12/04 00:13:26;;;;;;;;;;;1.00;99.90;;;;;;8320175;28;20414;-62
2021/12/04 00:17:27;;;;;;;;;;;1.00;99.90;;;;;;8309460;28;20472;-63
2021/12/04 00:21:27;;;;;;;;;;;1.10;99.90;;;;;;8308664;28;19967;-62
2021/12/04 00:25:28;;;;;;;;;;;1.20;99.90;;;;;;8327866;28;20279;-62
2021/12/04 00:29:28;;;;;;;;;;;1.20;99.90;;;;;;8359852;28;20383;-62
2021/12/04 00:33:31;;;;;;;;;;;1.30;99.90;;;;;;8359789;28;20189;-62
2021/12/04 00:50:30;;;;;;;;;;;1.50;99.90;;;;;;8325669;28;19924;-62
2021/12/04 00:54:30;;;;;;;;;;;1.70;99.90;;;;;;8326585;28;19913;-62
2021/12/04 00:58:31;;;;;;;;;;;1.90;99.90;;;;;;8334181;28;20019;-62
2021/12/04 01:02:32;;;;;;;;;;;2.00;99.90;;;;;;8359168;28;19916;-62
2021/12/04 01:06:32;;;;;;;;;;;2.00;99.90;;;;;;8358839;28;19920;-62
2021/12/04 01:10:33;;;;;;;;;;;2.10;99.90;;;;;;8359116;28;19920;-62
2021/12/04 01:14:33;;;;;;;;;;;2.00;99.90;;;;;;8359101;28;19909;-62
2021/12/04 01:18:34;;;;;;;;;;;2.10;99.90;;;;;;8332305;28;19999;-61
2021/12/04 01:22:34;;;;;;;;;;;2.10;99.90;;;;;;8328160;28;20530;-63
2021/12/04 01:26:35;;;;;;;;;;;2.00;99.90;;;;;;8340949;28;19920;-62
2021/12/04 01:30:35;;;;;;;;;;;2.10;99.90;;;;;;8364714;28;19913;-61
2021/12/04 01:34:36;;;;;;;;;;;2.00;99.90;;;;;;8364995;28;19913;-62
2021/12/04 01:38:37;;;;;;;;;;;1.90;99.90;;;;;;8338684;28;19948;-63
2021/12/04 01:42:37;;;;;;;;;;;1.70;99.90;;;;;;8313852;28;20339;-62
2021/12/04 01:46:38;;;;;;;;;;;1.50;99.90;;;;;;8340500;28;19913;-62
2021/12/04 01:50:38;;;;;;;;;;;1.20;99.90;;;;;;8339013;28;19957;-62
2021/12/04 01:54:39;;;;;;;;;;;1.20;99.90;;;;;;8331232;28;19916;-62
2021/12/04 01:58:41;;;;;;;;;;;1.20;99.90;;;;;;8313630;28;20446;-62
2021/12/04 02:02:42;;;;;;;;;;;1.30;99.90;;;;;;8330888;28;19909;-61
2021/12/04 02:06:42;;;;;;;;;;;1.40;99.90;;;;;;8339611;28;20314;-62
2021/12/04 02:10:44;;;;;;;;;;;1.50;99.90;;;;;;8363642;28;20380;-62
2021/12/04 02:14:44;;;;;;;;;;;1.50;99.90;;;;;;8335033;28;19917;-61
2021/12/04 02:18:45;;;;;;;;;;;1.50;99.90;;;;;;8327871;28;20007;-62
2021/12/04 02:22:46;;;;;;;;;;;1.40;99.90;;;;;;8326044;28;19915;-62
2021/12/04 02:26:48;;;;;;;;;;;1.30;99.90;;;;;;8330331;28;19913;-61
2021/12/04 02:30:48;;;;;;;;;;;1.30;99.90;;;;;;8329965;28;20382;-62
2021/12/04 02:34:49;;;;;;;;;;;1.30;99.90;;;;;;8329285;28;19997;-61
2021/12/04 02:38:51;;;;;;;;;;;1.30;99.90;;;;;;8351606;28;19947;-61
2021/12/04 02:42:52;;;;;;;;;;;1.30;99.90;;;;;;8362562;28;19917;-62
2021/12/04 02:46:52;;;;;;;;;;;1.30;99.90;;;;;;8356427;28;19909;-61
2021/12/04 02:50:53;;;;;;;;;;;1.30;99.90;;;;;;8310216;28;19932;-62
2021/12/04 02:54:53;;;;;;;;;;;1.20;99.90;;;;;;8329370;28;19928;-62
2021/12/04 02:59:00;;;;;;;;;;;1.20;99.90;;;;;;8329264;28;19913;-61
2021/12/04 03:03:02;;;;;;;;;;;1.20;99.90;;;;;;8327943;28;19917;-62
2021/12/04 03:07:03;;;;;;;;;;;1.20;99.90;;;;;;8333830;28;19917;-62
2021/12/04 03:11:03;;;;;;;;;;;1.20;99.90;;;;;;8361552;28;20338;-62
2021/12/04 03:15:05;;;;;;;;;;;1.20;99.90;;;;;;8343911;28;19909;-62
2021/12/04 03:19:06;;;;;;;;;;;1.30;99.90;;;;;;8335924;28;19979;-62
2021/12/04 03:23:12;;;;;;;;;;;1.20;99.90;;;;;;8327996;28;19913;-62
2021/12/04 03:27:15;;;;;;;;;;;1.20;99.90;;;;;;8327919;28;19913;-62
2021/12/04 03:31:26;;;;;;;;;;;1.20;99.90;;;;;;8328058;28;19956;-63
2021/12/04 03:40:04;;;;;;;;;;;1.20;99.90;;;;;;8310253;28;20387;-62
2021/12/04 03:44:00;;;;;;;;;;;1.20;99.90;;;;;;8360691;28;19934;-63
2021/12/04 03:48:10;;;;;;;;;;;1.10;99.90;;;;;;8344974;28;19921;-63
2021/12/04 03:52:11;;;;;;;;;;;1.20;99.90;;;;;;8327082;28;20463;-63
2021/12/04 03:56:14;;;;;;;;;;;1.10;99.90;;;;;;8327697;28;19917;-63
2021/12/04 04:00:15;;;;;;;;;;;1.00;99.90;;;;;;8309780;28;19959;-63
2021/12/04 04:04:15;;;;;;;;;;;1.00;99.90;;;;;;8327537;28;20283;-63
2021/12/04 04:08:16;;;;;;;;;;;1.00;99.90;;;;;;8342479;28;19923;-64
2021/12/04 04:12:17;;;;;;;;;;;1.10;99.90;;;;;;8360366;28;19909;-63
2021/12/04 04:16:17;;;;;;;;;;;1.20;99.90;;;;;;8359489;28;19909;-63
2021/12/04 04:20:19;;;;;;;;;;;1.30;99.90;;;;;;8308017;28;19914;-63
2021/12/04 04:24:20;;;;;;;;;;;1.40;99.90;;;;;;8325199;28;20427;-63
2021/12/04 04:28:20;;;;;;;;;;;1.50;99.90;;;;;;8324999;28;19917;-63
2021/12/04 04:32:23;;;;;;;;;;;1.60;99.90;;;;;;8333487;28;19917;-64
2021/12/04 05:02:22;;;;;;;;;;;2.30;99.90;;;;;;8332289;28;19913;-65
2021/12/04 05:11:03;;;;;;;;;;;2.50;99.90;;;;;;8341071;28;19927;-64
2021/12/04 05:15:13;;;;;;;;;;;2.60;99.90;;;;;;8342837;28;19940;-65
2021/12/04 05:19:26;;;;;;;;;;;2.60;99.90;;;;;;8343239;28;19920;-64
2021/12/04 05:23:26;;;;;;;;;;;2.70;99.90;;;;;;8347139;28;19936;-64
2021/12/04 05:27:27;;;;;;;;;;;2.70;99.90;;;;;;8345407;28;19917;-65
2021/12/04 05:31:27;;;;;;;;;;;2.70;99.90;;;;;;8343948;28;20050;-65
2021/12/04 05:35:28;;;;;;;;;;;2.70;99.90;;;;;;8324152;28;19917;-65
2021/12/04 05:39:28;;;;;;;;;;;2.70;99.90;;;;;;8312170;28;20348;-66
2021/12/04 05:43:29;;;;;;;;;;;2.70;99.90;;;;;;8324232;28;19921;-65
2021/12/04 05:47:43;;;;;;;;;;;2.80;99.90;;;;;;8336769;28;20002;-65
2021/12/04 05:52:20;;;;;;;;;;;2.80;99.90;;;;;;8313576;28;19909;-65
2021/12/04 05:56:10;;;;;;;;;;;2.80;99.90;;;;;;8320706;28;19936;-65
2021/12/04 06:00:13;;;;;;;;;;;2.80;99.90;;;;;;8328186;28;19992;-65
2021/12/04 06:04:14;;;;;;;;;;;2.90;99.90;;;;;;8309361;28;19913;-65
2021/12/04 06:08:14;;;;;;;;;;;2.90;99.90;;;;;;8328530;28;19924;-67
2021/12/04 06:12:15;;;;;;;;;;;2.90;99.90;;;;;;8328212;28;19920;-65
2021/12/04 06:16:15;;;;;;;;;;;2.90;99.90;;;;;;8330464;28;19909;-65
2021/12/04 06:24:35;;;;;;;;;;;2.90;99.90;;;;;;8349714;28;19920;-65
2021/12/04 06:28:36;;;;;;;;;;;3.00;99.90;;;;;;8331511;28;20241;-65
2021/12/04 06:32:37;;;;;;;;;;;3.00;99.90;;;;;;8326180;28;19921;-65
2021/12/04 06:36:38;;;;;;;;;;;3.00;99.90;;;;;;8322159;28;19917;-65
2021/12/04 06:40:38;;;;;;;;;;;3.00;99.90;;;;;;8309226;28;19913;-64
2021/12/04 06:44:39;;;;;;;;;;;2.90;99.90;;;;;;8315822;28;20008;-64
2021/12/04 06:48:46;;;;;;;;;;;2.90;99.90;;;;;;8312489;28;19921;-64
2021/12/04 06:52:48;;;;;;;;;;;2.80;99.90;;;;;;8317746;28;19924;-64
2021/12/04 06:56:49;;;;;;;;;;;2.90;99.90;;;;;;8328409;28;19917;-64
2021/12/04 07:00:50;;;;;;;;;;;3.00;99.90;;;;;;8327296;28;19913;-64
2021/12/04 07:04:50;;;;;;;;;;;3.00;99.90;;;;;;8319230;28;20418;-64
2021/12/04 07:08:51;;;;;;;;;;;3.10;99.90;;;;;;8311891;28;19927;-64
2021/12/04 07:12:51;;;;;;;;;;;3.10;99.90;;;;;;8328653;28;20009;-64
2021/12/04 07:16:52;;;;;;;;;;;3.10;99.90;;;;;;8326440;28;19919;-64
2021/12/04 07:20:52;;;;;;;;;;;3.10;99.90;;;;;;8329740;28;19919;-64
2021/12/04 07:24:53;;;;;;;;;;;3.10;99.90;;;;;;8326181;28;20372;-63
2021/12/04 07:28:53;;;;;;;;;;;3.20;99.90;;;;;;8325252;28;19925;-64
2021/12/04 07:32:54;;;;;;;;;;;3.30;99.90;;;;;;8327258;28;19916;-64
2021/12/04 07:36:55;;;;;;;;;;;3.50;99.90;;;;;;8329161;28;19940;-64
2021/12/04 07:40:56;;;;;;;;;;;3.50;99.90;;;;;;8306003;28;19917;-64
2021/12/04 07:44:58;;;;;;;;;;;3.60;99.90;;;;;;8332725;28;19916;-64
2021/12/04 07:48:59;;;;;;;;;;;3.60;99.90;;;;;;8319617;28;19932;-64
2021/12/04 07:52:59;;;;;;;;;;;3.70;99.90;;;;;;8308170;28;19956;-64
2021/12/04 07:57:00;;;;;;;;;;;3.70;99.90;;;;;;8324263;28;19913;-63
2021/12/04 08:01:01;;;;;;;;;;;3.70;99.90;;;;;;8311334;28;19917;-63
2021/12/04 08:05:01;;;;;;;;;;;3.70;99.90;;;;;;8328317;28;19943;-64
2021/12/04 08:09:02;;;;;;;;;;;3.80;99.90;;;;;;8326469;28;19940;-64
2021/12/04 08:13:03;;;;;;;;;;;3.70;99.90;;;;;;8325256;28;20016;-64
2021/12/04 08:17:04;;;;;;;;;;;3.80;99.90;;;;;;8308302;28;20287;-64
2021/12/04 08:21:05;;;;;;;;;;;3.80;99.90;;;;;;8325627;28;19945;-64
2021/12/04 08:25:06;;;;;;;;;;;3.80;99.90;;;;;;8325602;28;19996;-64
2021/12/04 08:29:06;;;;;;;;;;;3.90;99.90;;;;;;8325453;28;20307;-64
2021/12/04 08:33:09;;;;;;;;;;;3.90;99.90;;;;;;8328394;28;19913;-64
2021/12/04 08:37:09;;;;;;;;;;;4.00;99.90;;;;;;8332636;28;20011;-64
2021/12/04 08:41:10;;;;;;;;;;;4.10;99.90;;;;;;8332699;28;19920;-64
2021/12/04 08:45:11;;;;;;;;;;;4.20;99.90;;;;;;8332758;28;19921;-64
2021/12/04 08:49:13;;;;;;;;;;;4.20;99.90;;;;;;8333560;28;20423;-64
2021/12/04 08:53:14;;;;;;;;;;;4.30;99.90;;;;;;8332974;28;19916;-63
2021/12/04 08:57:14;;;;;;;;;;;4.30;99.90;;;;;;8336633;28;19913;-64
2021/12/04 09:01:23;;;;;;;;;;;4.40;99.90;;;;;;8331526;28;19913;-64
2021/12/04 09:05:24;;;;;;;;;;;4.40;99.90;;;;;;8341062;28;19919;-63
2021/12/04 09:09:27;;;;;;;;;;;4.40;99.90;;;;;;8330180;28;19921;-63
2021/12/04 09:13:28;;;;;;;;;;;4.50;99.90;;;;;;8330276;28;20344;-63
2021/12/04 09:17:29;;;;;;;;;;;4.50;99.90;;;;;;8346563;28;19915;-63
2021/12/04 09:21:30;;;;;;;;;;;4.50;99.90;;;;;;8341902;28;19917;-63
2021/12/04 09:25:32;;;;;;;;;;;4.60;99.90;;;;;;8344398;28;19974;-63
2021/12/04 09:34:12;;;;;;;;;;;4.80;99.90;;;;;;8345575;28;19916;-63
2021/12/04 10:33:54;;;;;;;;;;;5.90;99.90;;;;;;8328527;28;20321;-62
2021/12/04 10:38:01;;;;;;;;;;;5.90;99.90;;;;;;8318871;28;20210;-62
2021/12/04 10:42:05;;;;;;;;;;;6.30;99.90;;;;;;8326727;28;19918;-62
2021/12/04 10:46:16;;;;;;;;;;;6.50;99.90;;;;;;8325272;28;19920;-61
2021/12/04 10:54:29;;;;;;;;;;;6.70;99.90;;;;;;8312141;28;19909;-61
2021/12/04 11:02:54;;;;;;;;;;;6.80;99.90;;;;;;8327627;28;20390;-61
2021/12/04 11:20:22;;;;;;;;;;;6.80;99.90;;;;;;8327543;28;19959;-61
2021/12/04 11:24:42;;;;;;;;;;;6.90;99.90;;;;;;8314087;28;19920;-62
2021/12/04 11:34:53;;;;;;;;;;;6.90;99.90;;;;;;8308545;28;19917;-62
2021/12/04 11:38:01;;;;;;;;;;;6.90;99.90;;;;;;8326321;28;20055;-61
2021/12/04 11:46:29;;;;;;;;;;;7.10;99.90;;;;;;8326358;28;19920;-62
2021/12/04 11:50:31;;;;;;;;;;;7.40;99.90;;;;;;8314475;28;19952;-62
2021/12/04 11:54:42;;;;;;;;;;;7.60;99.90;;;;;;8316080;28;19917;-62
2021/12/04 11:58:44;;;;;;;;;;;8.40;99.90;;;;;;8326476;28;20363;-62
2021/12/04 12:02:44;;;;;;;;;;;8.60;99.90;;;;;;8358994;28;20381;-62
2021/12/04 12:06:45;;;;;;;;;;;8.60;99.90;;;;;;8335643;28;19909;-62
2021/12/04 12:10:49;;;;;;;;;;;8.40;99.90;;;;;;8325855;28;19917;-62
2021/12/04 12:14:52;;;;;;;;;;;8.10;99.90;;;;;;8295610;28;19959;-62
2021/12/04 12:18:59;;;;;;;;;;;8.10;99.90;;;;;;8277404;28;19914;-61
2021/12/04 12:23:05;;;;;;;;;;;7.80;99.90;;;;;;8293664;28;19913;-61
2021/12/04 12:40:08;;;;;;;;;;;7.20;99.90;;;;;;8323212;28;19923;-62
2021/12/04 12:44:22;;;;;;;;;;;7.10;99.90;;;;;;8325716;28;19924;-62
2021/12/04 12:48:22;;;;;;;;;;;7.10;99.90;;;;;;8326853;28;20307;-62
2021/12/04 12:52:25;;;;;;;;;;;6.90;99.90;;;;;;8352788;28;19972;-62
2021/12/04 12:56:27;;;;;;;;;;;6.80;99.90;;;;;;8346030;28;19971;-62
2021/12/04 13:13:25;;;;;;;;;;;6.70;99.90;;;;;;8336994;28;20425;-62
2021/12/04 13:17:28;;;;;;;;;;;6.80;99.90;;;;;;8308172;28;19945;-61
2021/12/04 13:21:31;;;;;;;;;;;6.70;99.90;;;;;;8331332;28;19923;-62
2021/12/04 13:25:32;;;;;;;;;;;6.70;99.90;;;;;;8331374;28;19921;-61
2021/12/04 13:29:32;;;;;;;;;;;6.70;99.90;;;;;;8330382;28;20203;-62
2021/12/04 13:33:34;;;;;;;;;;;6.70;99.90;;;;;;8331287;28;20000;-62
2021/12/04 13:37:35;;;;;;;;;;;6.80;99.90;;;;;;8319191;28;19917;-62
2021/12/04 13:41:37;;;;;;;;;;;6.80;99.90;;;;;;8318123;28;20376;-62
2021/12/04 13:45:37;;;;;;;;;;;6.80;99.90;;;;;;8340657;28;19913;-61
2021/12/04 13:50:06;;;;;;;;;;;6.80;99.90;;;;;;8344326;28;19957;-62
2021/12/04 13:54:11;;;;;;;;;;;6.60;99.90;;;;;;8330117;28;19913;-62
2021/12/04 13:58:12;;;;;;;;;;;6.70;99.90;;;;;;8336494;28;19960;-62
2021/12/04 14:02:20;;;;;;;;;;;6.70;99.90;;;;;;8311692;28;19913;-62
2021/12/04 14:06:21;;;;;;;;;;;6.70;99.90;;;;;;8331284;28;19924;-62
2021/12/04 14:10:32;;;;;;;;;;;6.80;99.90;;;;;;8312137;28;20007;-62
2021/12/04 14:14:34;;;;;;;;;;;6.80;99.90;;;;;;8332152;28;19913;-62
2021/12/04 14:18:36;;;;;;;;;;;6.80;99.90;;;;;;8330759;28;20213;-62
2021/12/04 14:22:44;;;;;;;;;;;6.80;99.90;;;;;;8335517;28;19913;-62
2021/12/04 14:26:51;;;;;;;;;;;6.70;99.90;;;;;;8348478;28;19909;-62
2021/12/04 14:30:51;;;;;;;;;;;6.70;99.90;;;;;;8328591;28;19914;-61
2021/12/04 14:34:59;;;;;;;;;;;6.70;99.90;;;;;;8330113;28;19917;-62
2021/12/04 14:39:03;;;;;;;;;;;6.50;99.90;;;;;;8330067;28;19971;-61
2021/12/04 14:43:05;;;;;;;;;;;6.20;99.90;;;;;;8337968;28;19912;-61
2021/12/04 14:47:07;;;;;;;;;;;6.20;99.90;;;;;;8362320;28;19913;-62
2021/12/04 14:51:13;;;;;;;;;;;6.10;99.90;;;;;;8344529;28;20375;-61
2021/12/04 14:55:18;;;;;;;;;;;6.10;99.90;;;;;;8335449;28;20523;-62
2021/12/04 14:59:18;;;;;;;;;;;6.10;99.90;;;;;;8329358;28;20008;-62
2021/12/04 15:03:21;;;;;;;;;;;6.10;99.90;;;;;;8339965;28;19913;-62
2021/12/04 15:07:24;;;;;;;;;;;6.10;99.90;;;;;;8362071;28;20363;-62
2021/12/04 15:11:29;;;;;;;;;;;6.10;99.90;;;;;;8361423;28;19912;-62
2021/12/04 15:15:31;;;;;;;;;;;6.10;99.90;;;;;;8333168;28;19917;-63
2021/12/04 15:19:44;;;;;;;;;;;6.20;99.90;;;;;;8310861;28;20449;-61
2021/12/04 15:23:46;;;;;;;;;;;6.20;99.90;;;;;;8342160;28;19916;-62
2021/12/04 15:27:46;;;;;;;;;;;6.20;99.90;;;;;;8338432;28;19940;-62
2021/12/04 15:31:47;;;;;;;;;;;6.30;99.90;;;;;;8328113;28;19917;-62
2021/12/04 15:35:50;;;;;;;;;;;6.30;99.90;;;;;;8328493;28;19917;-63
2021/12/04 15:39:50;;;;;;;;;;;6.20;99.90;;;;;;8325546;28;19936;-64
2021/12/04 15:48:23;;;;;;;;;;;6.20;99.90;;;;;;8295158;28;20368;-64
2021/12/04 15:56:45;;;;;;;;;;;6.20;99.90;;;;;;8309034;28;19971;-64
2021/12/04 16:00:49;;;;;;;;;;;6.20;99.90;;;;;;8327185;28;19909;-64
2021/12/04 16:04:50;;;;;;;;;;;6.30;99.90;;;;;;8327462;28;20301;-64
2021/12/04 16:08:53;;;;;;;;;;;6.30;99.90;;;;;;8335978;28;19982;-64
2021/12/04 16:12:55;;;;;;;;;;;6.30;99.90;;;;;;8360726;28;19935;-64
2021/12/04 16:16:56;;;;;;;;;;;6.30;99.90;;;;;;8360490;28;19944;-63
2021/12/04 16:20:56;;;;;;;;;;;6.40;99.90;;;;;;8329975;28;19913;-64
2021/12/04 16:24:58;;;;;;;;;;;6.40;99.90;;;;;;8326895;28;20395;-64
2021/12/04 16:37:19;;;;;;;;;;;6.40;99.90;;;;;;8326879;28;20079;-64
2021/12/04 16:41:21;;;;;;;;;;;6.40;99.90;;;;;;8326942;28;19909;-64
2021/12/04 16:45:22;;;;;;;;;;;6.30;99.90;;;;;;8326150;28;20284;-64
2021/12/04 16:49:23;;;;;;;;;;;6.30;99.90;;;;;;8326384;28;19944;-65
2021/12/04 17:01:48;;;;;;;;;;;6.30;99.90;;;;;;8333099;28;19960;-64
2021/12/04 17:05:51;;;;;;;;;;;6.40;99.90;;;;;;8333050;28;20374;-64
2021/12/04 17:09:51;;;;;;;;;;;6.30;99.90;;;;;;8346748;28;19917;-64
2021/12/04 17:13:52;;;;;;;;;;;6.30;99.90;;;;;;8365595;28;20374;-64
2021/12/04 17:17:52;;;;;;;;;;;6.20;99.90;;;;;;8365266;28;20445;-65
2021/12/04 17:21:53;;;;;;;;;;;6.20;99.90;;;;;;8350273;28;20379;-64
2021/12/04 17:25:55;;;;;;;;;;;6.20;99.90;;;;;;8313361;28;20453;-64
2021/12/04 17:29:55;;;;;;;;;;;6.30;99.90;;;;;;8312815;28;19921;-64
2021/12/04 17:33:56;;;;;;;;;;;6.30;99.90;;;;;;8331913;28;19913;-64
2021/12/04 17:37:59;;;;;;;;;;;6.30;99.90;;;;;;8331455;28;20376;-64
2021/12/04 17:42:00;;;;;;;;;;;6.40;99.90;;;;;;8331363;28;20348;-64
2021/12/04 17:46:00;;;;;;;;;;;6.30;99.90;;;;;;8346125;28;19916;-64
2021/12/04 17:50:01;;;;;;;;;;;6.40;99.90;;;;;;8364258;28;19917;-64
2021/12/04 17:54:03;;;;;;;;;;;6.30;99.90;;;;;;8346713;28;19909;-64
2021/12/04 17:58:03;;;;;;;;;;;6.30;99.90;;;;;;8344056;28;19920;-64
2021/12/04 18:02:09;;;;;;;;;;;6.30;99.90;;;;;;8330965;28;20391;-64
2021/12/04 18:06:10;;;;;;;;;;;6.30;99.90;;;;;;8331231;28;19909;-64
2021/12/04 18:10:12;;;;;;;;;;;6.30;99.90;;;;;;8359382;28;20417;-64
2021/12/04 18:14:14;;;;;;;;;;;6.30;99.90;;;;;;8346238;28;19913;-64
2021/12/04 18:18:17;;;;;;;;;;;6.30;99.90;;;;;;8363568;28;19909;-64
2021/12/04 18:22:17;;;;;;;;;;;6.30;99.90;;;;;;8329355;28;19913;-64
2021/12/04 18:26:18;;;;;;;;;;;6.30;99.90;;;;;;8330009;28;20339;-64
2021/12/04 18:30:19;;;;;;;;;;;6.30;99.90;;;;;;8330183;28;19960;-64
2021/12/04 18:34:20;;;;;;;;;;;6.30;99.90;;;;;;8346825;28;19944;-64
2021/12/04 18:38:20;;;;;;;;;;;6.30;99.90;;;;;;8363102;28;20359;-64
2021/12/04 18:42:21;;;;;;;;;;;6.20;99.90;;;;;;8344674;28;19916;-63
2021/12/04 18:46:24;;;;;;;;;;;6.10;99.90;;;;;;8329667;28;19914;-64
2021/12/04 18:50:25;;;;;;;;;;;6.10;99.90;;;;;;8329348;28;19913;-64
2021/12/04 18:54:26;;;;;;;;;;;6.10;99.90;;;;;;8329884;28;19921;-64
2021/12/04 18:58:27;;;;;;;;;;;6.00;99.90;;;;;;8328837;28;19951;-63
2021/12/04 19:02:30;;;;;;;;;;;6.00;99.90;;;;;;8310822;28;20271;-64
2021/12/04 19:06:31;;;;;;;;;;;5.90;99.90;;;;;;8328626;28;19909;-64
2021/12/04 19:10:33;;;;;;;;;;;5.90;99.90;;;;;;8310488;28;19921;-64
2021/12/04 19:14:34;;;;;;;;;;;5.90;99.90;;;;;;8334812;28;19921;-62
2021/12/04 19:18:34;;;;;;;;;;;5.90;99.90;;;;;;8326886;28;19940;-62
2021/12/04 19:22:38;;;;;;;;;;;5.80;99.90;;;;;;8309343;28;19913;-62
2021/12/04 19:26:39;;;;;;;;;;;5.90;99.90;;;;;;8327865;28;20283;-62
2021/12/04 19:30:48;;;;;;;;;;;5.80;99.90;;;;;;8327422;28;19913;-62
2021/12/04 19:35:18;;;;;;;;;;;5.80;99.90;;;;;;8342099;28;20303;-61
2021/12/04 19:48:24;;;;;;;;;;;5.60;99.90;;;;;;8322800;28;19974;-64
2021/12/04 19:52:25;;;;;;;;;;;5.70;99.90;;;;;;8320361;28;19928;-62
2021/12/04 19:56:36;;;;;;;;;;;5.70;99.90;;;;;;8319701;28;20012;-61
2021/12/04 20:00:45;;;;;;;;;;;5.70;99.90;;;;;;8311558;28;19928;-62
2021/12/04 20:05:09;;;;;;;;;;;5.70;99.90;;;;;;8323464;28;19924;-62
2021/12/04 20:09:17;;;;;;;;;;;5.70;99.90;;;;;;8321994;28;19917;-62
2021/12/04 20:13:46;;;;;;;;;;;5.60;99.90;;;;;;8304530;28;19909;-62
2021/12/04 20:17:47;;;;;;;;;;;5.60;99.90;;;;;;8311921;28;19917;-62
2021/12/04 20:21:56;;;;;;;;;;;5.50;99.90;;;;;;8308138;28;20156;-62
2021/12/04 20:26:02;;;;;;;;;;;5.40;99.90;;;;;;8320266;28;19956;-63
2021/12/04 20:30:15;;;;;;;;;;;5.30;99.90;;;;;;8320455;28;19917;-62
2021/12/04 21:52:17;;;;;;;;;;;3.80;99.90;;;;;;8325964;28;19920;-61
2021/12/04 21:56:38;;;;;;;;;;;3.60;99.90;;;;;;8326492;28;20687;-62
2021/12/04 22:09:26;;;;;;;;;;;3.40;99.90;;;;;;8313105;28;19970;-62
2021/12/04 22:13:44;;;;;;;;;;;3.40;99.90;;;;;;8332434;28;19924;-62
2021/12/04 22:18:13;;;;;;;;;;;3.40;99.90;;;;;;8322360;28;19917;-62
2021/12/04 22:57:58;;;;;;;;;;;3.40;99.90;;;;;;8325516;28;19936;-62
2021/12/04 23:01:06;;;;;;;;;;;3.30;99.90;;;;;;8325339;28;20015;-62
2021/12/04 23:13:50;;;;;;;;;;;3.30;99.90;;;;;;8357688;28;19978;-63
2021/12/04 23:35:32;;;;;;;;;;;3.20;99.90;;;;;;8326478;28;19919;-64
2021/12/04 23:39:59;;;;;;;;;;;3.30;99.90;;;;;;8325366;28;19940;-64
